sensor_id;sensor_type;location;lat;lon;timestamp;P1;durP1;ratioP1;P2;durP2;ratioP2
67363;SDS011;54250;45.572;38.086;2022-07-15T00:00:13;7.30;;;2.88;;
67363;SDS011;54250;45.572;38.086;2022-07-15T00:02:40;4.70;;;3.00;;
67363;SDS011;54250;45.572;38.086;2022-07-15T00:05:06;6.30;;;3.10;;
67363;SDS011;54250;45.572;38.086;2022-07-15T00:07:34;4.88;;;3.00;;
67363;SDS011;54250;45.572;38.086;2022-07-15T00:10:01;5.72;;;3.35;;
67363;SDS011;54250;45.572;38.086;2022-07-15T00:12:40;6.97;;;3.22;;
67363;SDS011;54250;45.572;38.086;2022-07-15T00:15:08;5.85;;;3.45;;
67363;SDS011;54250;45.572;38.086;2022-07-15T00:17:34;8.02;;;4.07;;
67363;SDS011;54250;45.572;38.086;2022-07-15T00:20:00;12.27;;;3.90;;
67363;SDS011;54250;45.572;38.086;2022-07-15T00:22:27;9.60;;;3.30;;
67363;SDS011;54250;45.572;38.086;2022-07-15T00:24:53;4.05;;;3.33;;
67363;SDS011;54250;45.572;38.086;2022-07-15T00:27:19;9.20;;;3.70;;
67363;SDS011;54250;45.572;38.086;2022-07-15T00:29:45;12.48;;;4.32;;
67363;SDS011;54250;45.572;38.086;2022-07-15T00:32:11;9.52;;;4.50;;
67363;SDS011;54250;45.572;38.086;2022-07-15T00:34:37;6.10;;;3.95;;
67363;SDS011;54250;45.572;38.086;2022-07-15T00:37:03;7.68;;;4.47;;
67363;SDS011;54250;45.572;38.086;2022-07-15T00:39:30;13.82;;;5.00;;
67363;SDS011;54250;45.572;38.086;2022-07-15T00:41:56;12.13;;;5.43;;
67363;SDS011;54250;45.572;38.086;2022-07-15T00:44:22;7.15;;;4.50;;
67363;SDS011;54250;45.572;38.086;2022-07-15T00:46:48;14.15;;;5.00;;
67363;SDS011;54250;45.572;38.086;2022-07-15T00:49:15;8.90;;;5.25;;
67363;SDS011;54250;45.572;38.086;2022-07-15T00:51:45;7.65;;;5.40;;
67363;SDS011;54250;45.572;38.086;2022-07-15T00:54:13;10.52;;;5.43;;
67363;SDS011;54250;45.572;38.086;2022-07-15T00:56:45;7.05;;;4.53;;
67363;SDS011;54250;45.572;38.086;2022-07-15T00:59:14;6.38;;;4.35;;
67363;SDS011;54250;45.572;38.086;2022-07-15T01:01:44;7.03;;;5.05;;
67363;SDS011;54250;45.572;38.086;2022-07-15T01:04:11;6.47;;;4.72;;
67363;SDS011;54250;45.572;38.086;2022-07-15T01:06:39;11.65;;;5.20;;
67363;SDS011;54250;45.572;38.086;2022-07-15T01:09:05;10.25;;;5.82;;
67363;SDS011;54250;45.572;38.086;2022-07-15T01:11:31;7.18;;;5.20;;
67363;SDS011;54250;45.572;38.086;2022-07-15T01:14:00;8.73;;;5.05;;
67363;SDS011;54250;45.572;38.086;2022-07-15T01:16:27;9.52;;;5.30;;
67363;SDS011;54250;45.572;38.086;2022-07-15T01:18:53;10.15;;;6.13;;
67363;SDS011;54250;45.572;38.086;2022-07-15T01:21:22;8.02;;;5.55;;
67363;SDS011;54250;45.572;38.086;2022-07-15T01:23:51;11.35;;;5.18;;
67363;SDS011;54250;45.572;38.086;2022-07-15T01:26:43;7.20;;;4.95;;
67363;SDS011;54250;45.572;38.086;2022-07-15T01:29:11;16.60;;;5.45;;
67363;SDS011;54250;45.572;38.086;2022-07-15T01:31:39;6.82;;;5.30;;
67363;SDS011;54250;45.572;38.086;2022-07-15T01:34:06;9.95;;;4.82;;
67363;SDS011;54250;45.572;38.086;2022-07-15T01:36:33;8.32;;;5.60;;
67363;SDS011;54250;45.572;38.086;2022-07-15T01:39:00;9.38;;;5.03;;
67363;SDS011;54250;45.572;38.086;2022-07-15T01:41:28;14.35;;;5.38;;
67363;SDS011;54250;45.572;38.086;2022-07-15T01:43:54;8.60;;;4.72;;
67363;SDS011;54250;45.572;38.086;2022-07-15T01:46:20;8.10;;;4.28;;
67363;SDS011;54250;45.572;38.086;2022-07-15T01:48:47;7.38;;;3.97;;
67363;SDS011;54250;45.572;38.086;2022-07-15T01:51:44;9.85;;;4.63;;
67363;SDS011;54250;45.572;38.086;2022-07-15T01:54:11;9.43;;;4.53;;
67363;SDS011;54250;45.572;38.086;2022-07-15T01:56:38;9.50;;;4.15;;
67363;SDS011;54250;45.572;38.086;2022-07-15T01:59:04;15.20;;;4.53;;
67363;SDS011;54250;45.572;38.086;2022-07-15T02:01:31;7.63;;;4.45;;
67363;SDS011;54250;45.572;38.086;2022-07-15T02:04:03;9.13;;;4.40;;
67363;SDS011;54250;45.572;38.086;2022-07-15T02:06:29;14.60;;;4.95;;
67363;SDS011;54250;45.572;38.086;2022-07-15T02:08:56;19.27;;;4.95;;
67363;SDS011;54250;45.572;38.086;2022-07-15T02:11:25;18.38;;;5.90;;
67363;SDS011;54250;45.572;38.086;2022-07-15T02:13:51;13.75;;;5.95;;
67363;SDS011;54250;45.572;38.086;2022-07-15T02:16:21;14.88;;;5.18;;
67363;SDS011;54250;45.572;38.086;2022-07-15T02:18:49;12.38;;;5.10;;
67363;SDS011;54250;45.572;38.086;2022-07-15T02:21:15;11.35;;;5.10;;
67363;SDS011;54250;45.572;38.086;2022-07-15T02:23:42;16.98;;;5.72;;
67363;SDS011;54250;45.572;38.086;2022-07-15T02:26:08;11.75;;;5.90;;
67363;SDS011;54250;45.572;38.086;2022-07-15T02:28:35;8.27;;;5.38;;
67363;SDS011;54250;45.572;38.086;2022-07-15T02:31:02;15.32;;;6.53;;
67363;SDS011;54250;45.572;38.086;2022-07-15T02:33:32;10.20;;;6.45;;
67363;SDS011;54250;45.572;38.086;2022-07-15T02:35:59;9.35;;;5.57;;
67363;SDS011;54250;45.572;38.086;2022-07-15T02:38:25;14.27;;;5.82;;
67363;SDS011;54250;45.572;38.086;2022-07-15T02:40:52;15.73;;;6.22;;
67363;SDS011;54250;45.572;38.086;2022-07-15T02:43:19;16.65;;;8.27;;
67363;SDS011;54250;45.572;38.086;2022-07-15T02:45:47;17.52;;;8.63;;
67363;SDS011;54250;45.572;38.086;2022-07-15T02:48:16;23.92;;;9.90;;
67363;SDS011;54250;45.572;38.086;2022-07-15T02:50:45;21.02;;;10.77;;
67363;SDS011;54250;45.572;38.086;2022-07-15T02:53:14;21.75;;;13.05;;
67363;SDS011;54250;45.572;38.086;2022-07-15T02:55:41;26.90;;;11.90;;
67363;SDS011;54250;45.572;38.086;2022-07-15T02:58:07;18.88;;;7.80;;
67363;SDS011;54250;45.572;38.086;2022-07-15T03:00:33;8.15;;;5.50;;
67363;SDS011;54250;45.572;38.086;2022-07-15T03:03:04;16.05;;;4.68;;
67363;SDS011;54250;45.572;38.086;2022-07-15T03:05:33;9.25;;;3.50;;
67363;SDS011;54250;45.572;38.086;2022-07-15T03:08:01;5.47;;;2.42;;
67363;SDS011;54250;45.572;38.086;2022-07-15T03:10:27;8.38;;;1.88;;
67363;SDS011;54250;45.572;38.086;2022-07-15T03:12:53;2.28;;;1.40;;
67363;SDS011;54250;45.572;38.086;2022-07-15T03:15:21;9.73;;;1.52;;
67363;SDS011;54250;45.572;38.086;2022-07-15T03:17:47;5.30;;;1.40;;
67363;SDS011;54250;45.572;38.086;2022-07-15T03:20:13;2.85;;;1.25;;
67363;SDS011;54250;45.572;38.086;2022-07-15T03:22:45;5.65;;;1.27;;
67363;SDS011;54250;45.572;38.086;2022-07-15T03:25:12;4.20;;;1.08;;
67363;SDS011;54250;45.572;38.086;2022-07-15T03:27:38;3.30;;;1.02;;
67363;SDS011;54250;45.572;38.086;2022-07-15T03:30:06;3.80;;;1.30;;
67363;SDS011;54250;45.572;38.086;2022-07-15T03:32:33;2.60;;;1.30;;
67363;SDS011;54250;45.572;38.086;2022-07-15T03:34:59;5.03;;;1.30;;
67363;SDS011;54250;45.572;38.086;2022-07-15T03:37:28;6.78;;;1.33;;
67363;SDS011;54250;45.572;38.086;2022-07-15T03:39:54;2.40;;;1.35;;
67363;SDS011;54250;45.572;38.086;2022-07-15T03:42:20;2.83;;;1.25;;
67363;SDS011;54250;45.572;38.086;2022-07-15T03:44:46;4.40;;;1.35;;
67363;SDS011;54250;45.572;38.086;2022-07-15T03:47:12;6.22;;;1.90;;
67363;SDS011;54250;45.572;38.086;2022-07-15T03:49:39;5.20;;;1.50;;
67363;SDS011;54250;45.572;38.086;2022-07-15T03:52:05;6.72;;;2.03;;
67363;SDS011;54250;45.572;38.086;2022-07-15T03:54:34;3.85;;;1.80;;
67363;SDS011;54250;45.572;38.086;2022-07-15T03:57:01;6.18;;;1.80;;
67363;SDS011;54250;45.572;38.086;2022-07-15T03:59:28;3.80;;;1.52;;
67363;SDS011;54250;45.572;38.086;2022-07-15T04:01:54;6.78;;;1.73;;
67363;SDS011;54250;45.572;38.086;2022-07-15T04:04:20;1.30;;;1.00;;
67363;SDS011;54250;45.572;38.086;2022-07-15T04:06:46;3.42;;;0.82;;
67363;SDS011;54250;45.572;38.086;2022-07-15T04:09:13;1.30;;;0.98;;
67363;SDS011;54250;45.572;38.086;2022-07-15T04:11:39;2.30;;;0.90;;
67363;SDS011;54250;45.572;38.086;2022-07-15T04:14:12;2.35;;;1.00;;
67363;SDS011;54250;45.572;38.086;2022-07-15T04:16:40;3.72;;;0.90;;
67363;SDS011;54250;45.572;38.086;2022-07-15T04:19:20;5.50;;;0.80;;
67363;SDS011;54250;45.572;38.086;2022-07-15T04:21:46;3.30;;;0.93;;
67363;SDS011;54250;45.572;38.086;2022-07-15T04:24:13;1.83;;;0.80;;
67363;SDS011;54250;45.572;38.086;2022-07-15T04:26:41;3.20;;;0.77;;
67363;SDS011;54250;45.572;38.086;2022-07-15T04:29:07;1.58;;;0.70;;
67363;SDS011;54250;45.572;38.086;2022-07-15T04:31:34;3.10;;;1.30;;
67363;SDS011;54250;45.572;38.086;2022-07-15T04:34:10;1.63;;;0.70;;
67363;SDS011;54250;45.572;38.086;2022-07-15T04:36:39;3.30;;;0.85;;
67363;SDS011;54250;45.572;38.086;2022-07-15T04:39:05;1.73;;;0.80;;
67363;SDS011;54250;45.572;38.086;2022-07-15T04:41:31;2.25;;;0.70;;
67363;SDS011;54250;45.572;38.086;2022-07-15T04:43:57;5.63;;;0.88;;
67363;SDS011;54250;45.572;38.086;2022-07-15T04:46:23;1.45;;;0.80;;
67363;SDS011;54250;45.572;38.086;2022-07-15T04:49:02;0.70;;;0.70;;
67363;SDS011;54250;45.572;38.086;2022-07-15T04:51:48;4.75;;;0.82;;
67363;SDS011;54250;45.572;38.086;2022-07-15T04:54:15;0.80;;;0.63;;
67363;SDS011;54250;45.572;38.086;2022-07-15T04:56:45;1.58;;;0.98;;
67363;SDS011;54250;45.572;38.086;2022-07-15T04:59:11;3.92;;;0.80;;
67363;SDS011;54250;45.572;38.086;2022-07-15T05:01:37;2.13;;;0.77;;
67363;SDS011;54250;45.572;38.086;2022-07-15T05:04:04;5.72;;;0.82;;
67363;SDS011;54250;45.572;38.086;2022-07-15T05:06:30;4.75;;;0.65;;
67363;SDS011;54250;45.572;38.086;2022-07-15T05:08:56;1.30;;;0.63;;
67363;SDS011;54250;45.572;38.086;2022-07-15T05:11:22;1.83;;;0.60;;
67363;SDS011;54250;45.572;38.086;2022-07-15T05:13:49;11.65;;;1.23;;
67363;SDS011;54250;45.572;38.086;2022-07-15T05:16:16;10.50;;;0.63;;
67363;SDS011;54250;45.572;38.086;2022-07-15T05:18:42;0.77;;;0.63;;
67363;SDS011;54250;45.572;38.086;2022-07-15T05:21:14;0.80;;;0.60;;
67363;SDS011;54250;45.572;38.086;2022-07-15T05:23:40;1.42;;;0.70;;
67363;SDS011;54250;45.572;38.086;2022-07-15T05:26:06;1.10;;;0.60;;
67363;SDS011;54250;45.572;38.086;2022-07-15T05:28:36;0.77;;;0.60;;
67363;SDS011;54250;45.572;38.086;2022-07-15T05:31:03;3.25;;;0.60;;
67363;SDS011;54250;45.572;38.086;2022-07-15T05:33:30;3.40;;;0.60;;
67363;SDS011;54250;45.572;38.086;2022-07-15T05:35:56;0.60;;;0.57;;
67363;SDS011;54250;45.572;38.086;2022-07-15T05:38:30;7.25;;;0.70;;
67363;SDS011;54250;45.572;38.086;2022-07-15T05:40:58;8.02;;;0.70;;
67363;SDS011;54250;45.572;38.086;2022-07-15T05:43:26;3.03;;;0.65;;
67363;SDS011;54250;45.572;38.086;2022-07-15T05:45:52;7.03;;;0.90;;
67363;SDS011;54250;45.572;38.086;2022-07-15T05:48:20;1.08;;;0.60;;
67363;SDS011;54250;45.572;38.086;2022-07-15T05:50:50;2.05;;;0.55;;
67363;SDS011;54250;45.572;38.086;2022-07-15T05:53:16;5.47;;;0.60;;
67363;SDS011;54250;45.572;38.086;2022-07-15T05:55:43;1.67;;;0.50;;
67363;SDS011;54250;45.572;38.086;2022-07-15T05:58:14;6.95;;;0.50;;
67363;SDS011;54250;45.572;38.086;2022-07-15T06:00:42;4.75;;;0.57;;
67363;SDS011;54250;45.572;38.086;2022-07-15T06:03:08;0.85;;;0.60;;
67363;SDS011;54250;45.572;38.086;2022-07-15T06:05:39;4.10;;;0.60;;
67363;SDS011;54250;45.572;38.086;2022-07-15T06:08:05;0.93;;;0.50;;
67363;SDS011;54250;45.572;38.086;2022-07-15T06:10:36;8.38;;;0.80;;
67363;SDS011;54250;45.572;38.086;2022-07-15T06:13:03;2.92;;;0.95;;
67363;SDS011;54250;45.572;38.086;2022-07-15T06:15:30;1.65;;;0.82;;
67363;SDS011;54250;45.572;38.086;2022-07-15T06:17:58;2.80;;;0.50;;
67363;SDS011;54250;45.572;38.086;2022-07-15T06:20:27;7.03;;;0.60;;
67363;SDS011;54250;45.572;38.086;2022-07-15T06:22:53;0.95;;;0.50;;
67363;SDS011;54250;45.572;38.086;2022-07-15T06:25:21;0.80;;;0.68;;
67363;SDS011;54250;45.572;38.086;2022-07-15T06:27:49;0.70;;;0.50;;
67363;SDS011;54250;45.572;38.086;2022-07-15T06:30:15;4.63;;;0.95;;
67363;SDS011;54250;45.572;38.086;2022-07-15T06:32:42;3.53;;;0.50;;
67363;SDS011;54250;45.572;38.086;2022-07-15T06:35:08;5.43;;;0.77;;
67363;SDS011;54250;45.572;38.086;2022-07-15T06:37:34;0.85;;;0.55;;
67363;SDS011;54250;45.572;38.086;2022-07-15T06:40:00;1.10;;;0.55;;
67363;SDS011;54250;45.572;38.086;2022-07-15T06:42:28;0.40;;;0.40;;
67363;SDS011;54250;45.572;38.086;2022-07-15T06:45:04;4.10;;;0.70;;
67363;SDS011;54250;45.572;38.086;2022-07-15T06:47:31;2.03;;;0.50;;
67363;SDS011;54250;45.572;38.086;2022-07-15T06:49:58;1.17;;;0.60;;
67363;SDS011;54250;45.572;38.086;2022-07-15T06:52:26;6.13;;;0.65;;
67363;SDS011;54250;45.572;38.086;2022-07-15T06:54:54;3.22;;;0.55;;
67363;SDS011;54250;45.572;38.086;2022-07-15T06:57:20;1.35;;;0.50;;
67363;SDS011;54250;45.572;38.086;2022-07-15T06:59:46;1.20;;;0.88;;
67363;SDS011;54250;45.572;38.086;2022-07-15T07:02:12;0.47;;;0.47;;
67363;SDS011;54250;45.572;38.086;2022-07-15T07:04:40;7.32;;;0.75;;
67363;SDS011;54250;45.572;38.086;2022-07-15T07:07:07;1.17;;;0.50;;
67363;SDS011;54250;45.572;38.086;2022-07-15T07:09:34;4.53;;;0.60;;
67363;SDS011;54250;45.572;38.086;2022-07-15T07:12:00;1.98;;;0.57;;
67363;SDS011;54250;45.572;38.086;2022-07-15T07:14:26;1.15;;;0.60;;
67363;SDS011;54250;45.572;38.086;2022-07-15T07:16:52;2.67;;;0.50;;
67363;SDS011;54250;45.572;38.086;2022-07-15T07:19:18;1.45;;;0.57;;
67363;SDS011;54250;45.572;38.086;2022-07-15T07:21:44;0.85;;;0.50;;
67363;SDS011;54250;45.572;38.086;2022-07-15T07:24:10;0.90;;;0.52;;
67363;SDS011;54250;45.572;38.086;2022-07-15T07:26:37;2.83;;;0.40;;
67363;SDS011;54250;45.572;38.086;2022-07-15T07:29:03;0.73;;;0.40;;
67363;SDS011;54250;45.572;38.086;2022-07-15T07:31:29;0.40;;;0.40;;
67363;SDS011;54250;45.572;38.086;2022-07-15T07:33:56;1.98;;;0.50;;
67363;SDS011;54250;45.572;38.086;2022-07-15T07:36:23;1.70;;;0.47;;
67363;SDS011;54250;45.572;38.086;2022-07-15T07:38:50;4.00;;;0.70;;
67363;SDS011;54250;45.572;38.086;2022-07-15T07:41:17;3.67;;;0.70;;
67363;SDS011;54250;45.572;38.086;2022-07-15T07:43:43;3.63;;;0.70;;
67363;SDS011;54250;45.572;38.086;2022-07-15T07:46:10;3.00;;;0.60;;
67363;SDS011;54250;45.572;38.086;2022-07-15T07:48:37;2.58;;;0.50;;
67363;SDS011;54250;45.572;38.086;2022-07-15T07:51:04;3.20;;;0.40;;
67363;SDS011;54250;45.572;38.086;2022-07-15T07:53:31;3.83;;;0.63;;
67363;SDS011;54250;45.572;38.086;2022-07-15T07:55:57;1.15;;;1.02;;
67363;SDS011;54250;45.572;38.086;2022-07-15T07:58:23;0.85;;;0.57;;
67363;SDS011;54250;45.572;38.086;2022-07-15T08:00:50;2.63;;;0.52;;
67363;SDS011;54250;45.572;38.086;2022-07-15T08:03:17;1.40;;;0.52;;
67363;SDS011;54250;45.572;38.086;2022-07-15T08:05:44;1.77;;;0.50;;
67363;SDS011;54250;45.572;38.086;2022-07-15T08:08:14;0.50;;;0.40;;
67363;SDS011;54250;45.572;38.086;2022-07-15T08:10:44;2.35;;;0.50;;
67363;SDS011;54250;45.572;38.086;2022-07-15T08:13:12;2.53;;;0.70;;
67363;SDS011;54250;45.572;38.086;2022-07-15T08:15:41;3.05;;;0.47;;
67363;SDS011;54250;45.572;38.086;2022-07-15T08:18:07;1.92;;;0.60;;
67363;SDS011;54250;45.572;38.086;2022-07-15T08:20:34;1.23;;;0.50;;
67363;SDS011;54250;45.572;38.086;2022-07-15T08:23:01;2.22;;;0.60;;
67363;SDS011;54250;45.572;38.086;2022-07-15T08:25:29;0.55;;;0.40;;
67363;SDS011;54250;45.572;38.086;2022-07-15T08:27:57;5.40;;;0.50;;
67363;SDS011;54250;45.572;38.086;2022-07-15T08:30:24;2.58;;;0.40;;
67363;SDS011;54250;45.572;38.086;2022-07-15T08:32:54;5.90;;;0.60;;
67363;SDS011;54250;45.572;38.086;2022-07-15T08:35:22;4.20;;;0.50;;
67363;SDS011;54250;45.572;38.086;2022-07-15T08:37:49;4.90;;;0.98;;
67363;SDS011;54250;45.572;38.086;2022-07-15T08:40:15;1.65;;;0.68;;
67363;SDS011;54250;45.572;38.086;2022-07-15T08:42:42;0.70;;;0.40;;
67363;SDS011;54250;45.572;38.086;2022-07-15T08:45:12;1.85;;;0.55;;
67363;SDS011;54250;45.572;38.086;2022-07-15T08:47:40;1.75;;;0.50;;
67363;SDS011;54250;45.572;38.086;2022-07-15T08:50:08;3.63;;;0.50;;
67363;SDS011;54250;45.572;38.086;2022-07-15T08:52:37;1.05;;;0.60;;
67363;SDS011;54250;45.572;38.086;2022-07-15T08:55:04;2.35;;;0.60;;
67363;SDS011;54250;45.572;38.086;2022-07-15T08:57:34;0.45;;;0.45;;
67363;SDS011;54250;45.572;38.086;2022-07-15T09:00:05;1.40;;;0.52;;
67363;SDS011;54250;45.572;38.086;2022-07-15T09:02:35;2.53;;;0.55;;
67363;SDS011;54250;45.572;38.086;2022-07-15T09:10:44;3.17;;;0.63;;
67363;SDS011;54250;45.572;38.086;2022-07-15T09:13:21;1.13;;;0.50;;
67363;SDS011;54250;45.572;38.086;2022-07-15T09:16:05;0.68;;;0.50;;
67363;SDS011;54250;45.572;38.086;2022-07-15T09:18:37;3.30;;;0.57;;
67363;SDS011;54250;45.572;38.086;2022-07-15T09:21:22;5.80;;;0.50;;
67363;SDS011;54250;45.572;38.086;2022-07-15T09:23:50;0.47;;;0.40;;
67363;SDS011;54250;45.572;38.086;2022-07-15T09:26:32;1.13;;;0.65;;
67363;SDS011;54250;45.572;38.086;2022-07-15T09:29:02;1.17;;;0.60;;
67363;SDS011;54250;45.572;38.086;2022-07-15T09:31:54;1.67;;;0.57;;
67363;SDS011;54250;45.572;38.086;2022-07-15T09:35:02;2.30;;;0.55;;
67363;SDS011;54250;45.572;38.086;2022-07-15T09:37:55;4.10;;;0.60;;
67363;SDS011;54250;45.572;38.086;2022-07-15T09:40:22;2.88;;;0.60;;
67363;SDS011;54250;45.572;38.086;2022-07-15T09:43:02;0.93;;;0.63;;
67363;SDS011;54250;45.572;38.086;2022-07-15T09:45:31;3.83;;;0.50;;
67363;SDS011;54250;45.572;38.086;2022-07-15T09:48:05;0.90;;;0.60;;
67363;SDS011;54250;45.572;38.086;2022-07-15T09:50:38;2.58;;;0.80;;
67363;SDS011;54250;45.572;38.086;2022-07-15T09:53:11;0.98;;;0.50;;
67363;SDS011;54250;45.572;38.086;2022-07-15T09:55:38;0.85;;;0.50;;
67363;SDS011;54250;45.572;38.086;2022-07-15T09:58:06;2.55;;;0.90;;
67363;SDS011;54250;45.572;38.086;2022-07-15T10:00:37;3.63;;;0.70;;
67363;SDS011;54250;45.572;38.086;2022-07-15T10:03:03;5.15;;;0.68;;
67363;SDS011;54250;45.572;38.086;2022-07-15T10:05:30;4.22;;;0.70;;
67363;SDS011;54250;45.572;38.086;2022-07-15T10:08:00;1.55;;;0.57;;
67363;SDS011;54250;45.572;38.086;2022-07-15T10:10:29;2.38;;;0.43;;
67363;SDS011;54250;45.572;38.086;2022-07-15T10:13:05;3.10;;;0.70;;
67363;SDS011;54250;45.572;38.086;2022-07-15T10:24:26;0.50;;;0.50;;
67363;SDS011;54250;45.572;38.086;2022-07-15T10:27:25;3.42;;;0.68;;
67363;SDS011;54250;45.572;38.086;2022-07-15T10:30:10;6.80;;;0.88;;
67363;SDS011;54250;45.572;38.086;2022-07-15T10:35:44;3.30;;;0.82;;
67363;SDS011;54250;45.572;38.086;2022-07-15T10:48:45;5.50;;;0.70;;
67363;SDS011;54250;45.572;38.086;2022-07-15T10:52:02;2.38;;;0.70;;
67363;SDS011;54250;45.572;38.086;2022-07-15T10:54:10;9.18;;;0.70;;
67363;SDS011;54250;45.572;38.086;2022-07-15T10:56:46;4.80;;;0.65;;
67363;SDS011;54250;45.572;38.086;2022-07-15T10:59:15;12.55;;;1.08;;
67363;SDS011;54250;45.572;38.086;2022-07-15T11:01:45;3.60;;;0.57;;
67363;SDS011;54250;45.572;38.086;2022-07-15T11:04:26;2.20;;;0.50;;
67363;SDS011;54250;45.572;38.086;2022-07-15T11:19:55;5.43;;;0.40;;
67363;SDS011;54250;45.572;38.086;2022-07-15T11:22:25;5.35;;;0.90;;
67363;SDS011;54250;45.572;38.086;2022-07-15T11:24:53;3.10;;;0.63;;
67363;SDS011;54250;45.572;38.086;2022-07-15T11:27:21;6.18;;;0.90;;
67363;SDS011;54250;45.572;38.086;2022-07-15T11:32:17;0.50;;;0.50;;
67363;SDS011;54250;45.572;38.086;2022-07-15T11:34:45;1.10;;;0.40;;
67363;SDS011;54250;45.572;38.086;2022-07-15T11:37:14;2.50;;;0.50;;
67363;SDS011;54250;45.572;38.086;2022-07-15T11:39:47;7.10;;;0.50;;
67363;SDS011;54250;45.572;38.086;2022-07-15T11:42:19;3.33;;;0.57;;
67363;SDS011;54250;45.572;38.086;2022-07-15T11:45:06;6.13;;;0.70;;
67363;SDS011;54250;45.572;38.086;2022-07-15T11:47:33;3.75;;;0.70;;
67363;SDS011;54250;45.572;38.086;2022-07-15T11:50:01;4.30;;;0.80;;
67363;SDS011;54250;45.572;38.086;2022-07-15T11:52:30;8.55;;;0.60;;
67363;SDS011;54250;45.572;38.086;2022-07-15T11:54:56;1.20;;;0.60;;
67363;SDS011;54250;45.572;38.086;2022-07-15T11:57:22;6.18;;;0.55;;
67363;SDS011;54250;45.572;38.086;2022-07-15T11:59:51;2.88;;;0.80;;
67363;SDS011;54250;45.572;38.086;2022-07-15T12:02:18;2.22;;;0.68;;
67363;SDS011;54250;45.572;38.086;2022-07-15T12:04:44;3.10;;;0.60;;
67363;SDS011;54250;45.572;38.086;2022-07-15T12:07:11;0.90;;;0.52;;
67363;SDS011;54250;45.572;38.086;2022-07-15T12:09:47;3.05;;;0.50;;
67363;SDS011;54250;45.572;38.086;2022-07-15T12:12:16;12.90;;;0.85;;
67363;SDS011;54250;45.572;38.086;2022-07-15T12:14:49;7.13;;;0.70;;
67363;SDS011;54250;45.572;38.086;2022-07-15T12:17:16;5.07;;;0.73;;
67363;SDS011;54250;45.572;38.086;2022-07-15T12:19:46;1.05;;;0.65;;
67363;SDS011;54250;45.572;38.086;2022-07-15T12:22:17;2.30;;;0.68;;
67363;SDS011;54250;45.572;38.086;2022-07-15T12:24:47;4.35;;;0.50;;
67363;SDS011;54250;45.572;38.086;2022-07-15T12:27:35;9.80;;;0.90;;
67363;SDS011;54250;45.572;38.086;2022-07-15T12:30:06;2.30;;;0.80;;
67363;SDS011;54250;45.572;38.086;2022-07-15T12:32:33;7.88;;;0.95;;
67363;SDS011;54250;45.572;38.086;2022-07-15T12:35:00;0.60;;;0.45;;
67363;SDS011;54250;45.572;38.086;2022-07-15T12:37:45;2.53;;;0.50;;
67363;SDS011;54250;45.572;38.086;2022-07-15T12:40:20;2.20;;;0.70;;
67363;SDS011;54250;45.572;38.086;2022-07-15T12:42:51;8.57;;;0.98;;
67363;SDS011;54250;45.572;38.086;2022-07-15T12:45:22;2.42;;;0.82;;
67363;SDS011;54250;45.572;38.086;2022-07-15T12:48:09;6.93;;;0.60;;
67363;SDS011;54250;45.572;38.086;2022-07-15T12:53:17;4.68;;;0.70;;
67363;SDS011;54250;45.572;38.086;2022-07-15T12:55:45;6.65;;;0.65;;
67363;SDS011;54250;45.572;38.086;2022-07-15T12:58:13;1.27;;;0.68;;
67363;SDS011;54250;45.572;38.086;2022-07-15T13:00:42;4.30;;;0.80;;
67363;SDS011;54250;45.572;38.086;2022-07-15T13:03:16;4.35;;;0.68;;
67363;SDS011;54250;45.572;38.086;2022-07-15T13:05:47;5.45;;;1.02;;
67363;SDS011;54250;45.572;38.086;2022-07-15T13:08:15;6.65;;;0.63;;
67363;SDS011;54250;45.572;38.086;2022-07-15T13:10:46;2.80;;;0.77;;
67363;SDS011;54250;45.572;38.086;2022-07-15T13:13:14;14.82;;;0.82;;
67363;SDS011;54250;45.572;38.086;2022-07-15T13:15:42;6.32;;;0.90;;
67363;SDS011;54250;45.572;38.086;2022-07-15T13:18:09;11.65;;;1.30;;
67363;SDS011;54250;45.572;38.086;2022-07-15T13:20:35;6.20;;;0.63;;
67363;SDS011;54250;45.572;38.086;2022-07-15T13:23:02;8.65;;;0.85;;
67363;SDS011;54250;45.572;38.086;2022-07-15T13:25:29;3.15;;;0.60;;
67363;SDS011;54250;45.572;38.086;2022-07-15T13:27:57;5.55;;;0.80;;
67363;SDS011;54250;45.572;38.086;2022-07-15T13:30:24;6.47;;;0.70;;
67363;SDS011;54250;45.572;38.086;2022-07-15T13:32:50;1.20;;;0.60;;
67363;SDS011;54250;45.572;38.086;2022-07-15T13:35:17;2.00;;;0.50;;
67363;SDS011;54250;45.572;38.086;2022-07-15T13:37:43;11.77;;;0.70;;
67363;SDS011;54250;45.572;38.086;2022-07-15T13:40:09;3.97;;;0.57;;
67363;SDS011;54250;45.572;38.086;2022-07-15T13:42:37;3.30;;;0.85;;
67363;SDS011;54250;45.572;38.086;2022-07-15T13:45:04;3.55;;;0.70;;
67363;SDS011;54250;45.572;38.086;2022-07-15T13:47:32;5.28;;;0.88;;
67363;SDS011;54250;45.572;38.086;2022-07-15T13:49:58;9.85;;;1.27;;
67363;SDS011;54250;45.572;38.086;2022-07-15T13:52:43;6.60;;;0.73;;
67363;SDS011;54250;45.572;38.086;2022-07-15T13:55:13;14.00;;;1.10;;
67363;SDS011;54250;45.572;38.086;2022-07-15T13:57:40;5.30;;;2.03;;
67363;SDS011;54250;45.572;38.086;2022-07-15T14:00:25;6.00;;;0.88;;
67363;SDS011;54250;45.572;38.086;2022-07-15T14:02:51;5.05;;;0.98;;
67363;SDS011;54250;45.572;38.086;2022-07-15T14:05:19;4.45;;;0.88;;
67363;SDS011;54250;45.572;38.086;2022-07-15T14:07:46;13.70;;;0.82;;
67363;SDS011;54250;45.572;38.086;2022-07-15T14:10:12;7.15;;;1.55;;
67363;SDS011;54250;45.572;38.086;2022-07-15T14:12:39;9.43;;;1.00;;
67363;SDS011;54250;45.572;38.086;2022-07-15T14:15:06;14.07;;;0.80;;
67363;SDS011;54250;45.572;38.086;2022-07-15T14:17:32;3.60;;;0.60;;
67363;SDS011;54250;45.572;38.086;2022-07-15T14:19:58;6.15;;;0.77;;
67363;SDS011;54250;45.572;38.086;2022-07-15T14:22:26;2.97;;;0.85;;
67363;SDS011;54250;45.572;38.086;2022-07-15T14:24:52;4.55;;;0.88;;
67363;SDS011;54250;45.572;38.086;2022-07-15T14:27:19;3.08;;;1.10;;
67363;SDS011;54250;45.572;38.086;2022-07-15T14:29:45;6.45;;;1.00;;
67363;SDS011;54250;45.572;38.086;2022-07-15T14:32:12;1.40;;;0.65;;
67363;SDS011;54250;45.572;38.086;2022-07-15T14:34:38;11.30;;;1.02;;
67363;SDS011;54250;45.572;38.086;2022-07-15T14:37:04;9.98;;;0.95;;
67363;SDS011;54250;45.572;38.086;2022-07-15T14:39:30;3.30;;;0.82;;
67363;SDS011;54250;45.572;38.086;2022-07-15T14:41:56;2.85;;;1.27;;
67363;SDS011;54250;45.572;38.086;2022-07-15T14:44:23;1.83;;;1.00;;
67363;SDS011;54250;45.572;38.086;2022-07-15T14:46:49;5.10;;;0.85;;
67363;SDS011;54250;45.572;38.086;2022-07-15T14:49:15;3.10;;;0.80;;
67363;SDS011;54250;45.572;38.086;2022-07-15T14:51:41;8.98;;;1.00;;
67363;SDS011;54250;45.572;38.086;2022-07-15T14:54:07;5.72;;;0.90;;
67363;SDS011;54250;45.572;38.086;2022-07-15T14:56:35;4.05;;;2.47;;
67363;SDS011;54250;45.572;38.086;2022-07-15T14:59:01;5.10;;;0.90;;
67363;SDS011;54250;45.572;38.086;2022-07-15T15:01:28;12.70;;;1.05;;
67363;SDS011;54250;45.572;38.086;2022-07-15T15:03:54;6.97;;;0.90;;
67363;SDS011;54250;45.572;38.086;2022-07-15T15:06:21;5.47;;;0.85;;
67363;SDS011;54250;45.572;38.086;2022-07-15T15:08:47;6.75;;;1.15;;
67363;SDS011;54250;45.572;38.086;2022-07-15T15:11:13;15.18;;;0.88;;
67363;SDS011;54250;45.572;38.086;2022-07-15T15:13:39;4.15;;;0.80;;
67363;SDS011;54250;45.572;38.086;2022-07-15T15:16:07;19.52;;;1.60;;
67363;SDS011;54250;45.572;38.086;2022-07-15T15:18:33;8.32;;;0.93;;
67363;SDS011;54250;45.572;38.086;2022-07-15T15:20:59;13.30;;;0.95;;
67363;SDS011;54250;45.572;38.086;2022-07-15T15:23:25;7.28;;;1.17;;
67363;SDS011;54250;45.572;38.086;2022-07-15T15:25:51;17.88;;;1.13;;
67363;SDS011;54250;45.572;38.086;2022-07-15T15:28:36;9.80;;;0.80;;